sensor_id;sensor_type;location;lat;lon;timestamp;pressure;altitude;pressure_sealevel;temperature;humidity
59951;BME280;45812;53.540;9.774;2024-01-11T00:01:09;103410.59;;;0.85;88.19
59951;BME280;45812;53.540;9.774;2024-01-11T00:03:35;103405.28;;;0.87;88.53
59951;BME280;45812;53.540;9.774;2024-01-11T00:06:00;103403.47;;;0.90;88.85
59951;BME280;45812;53.540;9.774;2024-01-11T00:08:26;103403.38;;;0.95;88.40
59951;BME280;45812;53.540;9.774;2024-01-11T00:10:51;103395.38;;;1.00;88.64
59951;BME280;45812;53.540;9.774;2024-01-11T00:13:16;103388.34;;;1.02;87.92
59951;BME280;45812;53.540;9.774;2024-01-11T00:15:41;103393.53;;;1.03;88.13
59951;BME280;45812;53.540;9.774;2024-01-11T00:18:07;103373.44;;;1.04;87.41
59951;BME280;45812;53.540;9.774;2024-01-11T00:20:32;103373.44;;;1.04;87.55
59951;BME280;45812;53.540;9.774;2024-01-11T00:22:57;103366.63;;;0.97;87.47
59951;BME280;45812;53.540;9.774;2024-01-11T00:25:22;103347.53;;;0.90;87.83
59951;BME280;45812;53.540;9.774;2024-01-11T00:27:48;103338.94;;;0.85;88.36
59951;BME280;45812;53.540;9.774;2024-01-11T00:30:14;103344.34;;;0.79;88.43
59951;BME280;45812;53.540;9.774;2024-01-11T00:32:39;103356.75;;;0.71;88.86
59951;BME280;45812;53.540;9.774;2024-01-11T00:35:05;103355.91;;;0.69;89.65
59951;BME280;45812;53.540;9.774;2024-01-11T00:37:30;103342.91;;;0.66;90.56
59951;BME280;45812;53.540;9.774;2024-01-11T00:39:55;103336.75;;;0.67;90.83
59951;BME280;45812;53.540;9.774;2024-01-11T00:42:20;103326.22;;;0.68;90.93
59951;BME280;45812;53.540;9.774;2024-01-11T00:44:46;103317.47;;;0.69;90.79
59951;BME280;45812;53.540;9.774;2024-01-11T00:47:11;103331.50;;;0.67;90.30
59951;BME280;45812;53.540;9.774;2024-01-11T00:49:36;103334.13;;;0.67;91.48
59951;BME280;45812;53.540;9.774;2024-01-11T00:52:02;103321.84;;;0.69;90.41
59951;BME280;45812;53.540;9.774;2024-01-11T00:54:27;103333.19;;;0.69;90.67
59951;BME280;45812;53.540;9.774;2024-01-11T00:56:52;103326.19;;;0.70;90.43
59951;BME280;45812;53.540;9.774;2024-01-11T00:59:18;103331.47;;;0.68;90.91
59951;BME280;45812;53.540;9.774;2024-01-11T01:01:47;103323.94;;;0.54;90.90
59951;BME280;45812;53.540;9.774;2024-01-11T01:04:13;103316.38;;;0.42;91.69
59951;BME280;45812;53.540;9.774;2024-01-11T01:06:38;103313.34;;;0.22;92.89
59951;BME280;45812;53.540;9.774;2024-01-11T01:09:03;103308.19;;;0.19;95.35
59951;BME280;45812;53.540;9.774;2024-01-11T01:11:29;103299.31;;;0.24;95.67
59951;BME280;45812;53.540;9.774;2024-01-11T01:13:54;103281.63;;;0.34;95.46
59951;BME280;45812;53.540;9.774;2024-01-11T01:16:20;103282.31;;;0.42;94.63
59951;BME280;45812;53.540;9.774;2024-01-11T01:18:45;103289.13;;;0.49;93.15
59951;BME280;45812;53.540;9.774;2024-01-11T01:21:10;103286.56;;;0.46;92.97
59951;BME280;45812;53.540;9.774;2024-01-11T01:23:35;103291.91;;;0.43;93.23
59951;BME280;45812;53.540;9.774;2024-01-11T01:26:00;103295.38;;;0.44;94.32
59951;BME280;45812;53.540;9.774;2024-01-11T01:28:26;103289.13;;;0.49;93.71
59951;BME280;45812;53.540;9.774;2024-01-11T01:30:51;103281.19;;;0.52;92.99
59951;BME280;45812;53.540;9.774;2024-01-11T01:33:17;103281.22;;;0.51;92.63
59951;BME280;45812;53.540;9.774;2024-01-11T01:35:42;103281.28;;;0.48;92.58
59951;BME280;45812;53.540;9.774;2024-01-11T01:38:07;103285.75;;;0.44;92.57
59951;BME280;45812;53.540;9.774;2024-01-11T01:40:33;103292.91;;;0.38;92.58
59951;BME280;45812;53.540;9.774;2024-01-11T01:42:58;103286.13;;;0.29;93.89
59951;BME280;45812;53.540;9.774;2024-01-11T01:45:27;103292.31;;;0.25;93.80
59951;BME280;45812;53.540;9.774;2024-01-11T01:47:53;103301.13;;;0.22;94.11
59951;BME280;45812;53.540;9.774;2024-01-11T01:50:19;103287.97;;;0.24;94.62
59951;BME280;45812;53.540;9.774;2024-01-11T01:52:45;103274.28;;;0.11;93.82
59951;BME280;45812;53.540;9.774;2024-01-11T01:55:12;103279.78;;;0.01;95.25
59951;BME280;45812;53.540;9.774;2024-01-11T01:57:40;103287.72;;;-0.04;95.65
59951;BME280;45812;53.540;9.774;2024-01-11T02:00:08;103281.63;;;-0.05;96.12
59951;BME280;45812;53.540;9.774;2024-01-11T02:02:35;103273.72;;;-0.03;96.78
59951;BME280;45812;53.540;9.774;2024-01-11T02:05:01;103287.69;;;-0.03;96.87
59951;BME280;45812;53.540;9.774;2024-01-11T02:07:27;103296.41;;;-0.02;96.52
59951;BME280;45812;53.540;9.774;2024-01-11T02:09:52;103316.59;;;-0.07;96.91
59951;BME280;45812;53.540;9.774;2024-01-11T02:12:17;103317.66;;;-0.16;97.25
59951;BME280;45812;53.540;9.774;2024-01-11T02:14:44;103323.06;;;-0.25;98.33
59951;BME280;45812;53.540;9.774;2024-01-11T02:17:09;103334.50;;;-0.29;98.57
59951;BME280;45812;53.540;9.774;2024-01-11T02:19:34;103338.00;;;-0.30;99.42
59951;BME280;45812;53.540;9.774;2024-01-11T02:22:02;103321.41;;;-0.29;99.46
59951;BME280;45812;53.540;9.774;2024-01-11T02:24:27;103325.69;;;-0.25;99.03
59951;BME280;45812;53.540;9.774;2024-01-11T02:27:00;103324.66;;;-0.16;99.87
59951;BME280;45812;53.540;9.774;2024-01-11T02:29:26;103319.28;;;-0.10;99.14
59951;BME280;45812;53.540;9.774;2024-01-11T02:31:51;103323.72;;;-0.14;99.33
59951;BME280;45812;53.540;9.774;2024-01-11T02:34:17;103332.41;;;-0.12;99.16
59951;BME280;45812;53.540;9.774;2024-01-11T02:36:42;103329.72;;;-0.09;99.36
59951;BME280;45812;53.540;9.774;2024-01-11T02:39:08;103313.03;;;-0.05;99.09
59951;BME280;45812;53.540;9.774;2024-01-11T02:41:33;103322.59;;;-0.02;99.45
59951;BME280;45812;53.540;9.774;2024-01-11T02:44:00;103325.13;;;0.03;99.34
59951;BME280;45812;53.540;9.774;2024-01-11T02:46:26;103323.44;;;-0.02;98.50
59951;BME280;45812;53.540;9.774;2024-01-11T02:48:51;103333.41;;;-0.17;99.58
59951;BME280;45812;53.540;9.774;2024-01-11T02:51:17;103344.91;;;-0.26;99.76
59951;BME280;45812;53.540;9.774;2024-01-11T02:53:42;103331.97;;;-0.34;100.00
59951;BME280;45812;53.540;9.774;2024-01-11T02:56:08;103319.91;;;-0.41;100.00
59951;BME280;45812;53.540;9.774;2024-01-11T02:58:33;103305.88;;;-0.38;100.00
59951;BME280;45812;53.540;9.774;2024-01-11T03:00:58;103308.50;;;-0.38;100.00
59951;BME280;45812;53.540;9.774;2024-01-11T03:03:23;103306.75;;;-0.38;100.00
59951;BME280;45812;53.540;9.774;2024-01-11T03:05:49;103306.75;;;-0.36;100.00
59951;BME280;45812;53.540;9.774;2024-01-11T03:08:14;103318.97;;;-0.37;100.00
59951;BME280;45812;53.540;9.774;2024-01-11T03:10:39;103310.13;;;-0.31;100.00
59951;BME280;45812;53.540;9.774;2024-01-11T03:13:06;103309.84;;;-0.19;100.00
59951;BME280;45812;53.540;9.774;2024-01-11T03:15:32;103320.25;;;-0.14;100.00
59951;BME280;45812;53.540;9.774;2024-01-11T03:17:57;103327.16;;;-0.12;100.00
59951;BME280;45812;53.540;9.774;2024-01-11T03:20:22;103316.53;;;-0.04;100.00
59951;BME280;45812;53.540;9.774;2024-01-11T03:22:50;103325.16;;;-0.01;100.00
59951;BME280;45812;53.540;9.774;2024-01-11T03:25:16;103323.50;;;-0.05;100.00
59951;BME280;45812;53.540;9.774;2024-01-11T03:27:41;103304.47;;;-0.11;100.00
59951;BME280;45812;53.540;9.774;2024-01-11T03:30:07;103321.19;;;-0.17;100.00
59951;BME280;45812;53.540;9.774;2024-01-11T03:32:32;103319.47;;;-0.18;100.00
59951;BME280;45812;53.540;9.774;2024-01-11T03:34:58;103328.16;;;-0.19;100.00
59951;BME280;45812;53.540;9.774;2024-01-11T03:37:23;103321.25;;;-0.21;100.00
59951;BME280;45812;53.540;9.774;2024-01-11T03:39:48;103322.00;;;-0.15;100.00
59951;BME280;45812;53.540;9.774;2024-01-11T03:42:13;103324.59;;;-0.13;100.00
59951;BME280;45812;53.540;9.774;2024-01-11T03:44:39;103325.44;;;-0.13;100.00
59951;BME280;45812;53.540;9.774;2024-01-11T03:47:04;103340.09;;;-0.04;100.00
59951;BME280;45812;53.540;9.774;2024-01-11T03:49:29;103348.69;;;0.03;100.00
59951;BME280;45812;53.540;9.774;2024-01-11T03:51:54;103353.09;;;-0.01;100.00
59951;BME280;45812;53.540;9.774;2024-01-11T03:54:20;103352.19;;;0.03;100.00
59951;BME280;45812;53.540;9.774;2024-01-11T03:56:45;103350.28;;;0.10;100.00
59951;BME280;45812;53.540;9.774;2024-01-11T03:59:10;103340.66;;;0.10;100.00
59951;BME280;45812;53.540;9.774;2024-01-11T04:01:40;103338.91;;;0.11;100.00
59951;BME280;45812;53.540;9.774;2024-01-11T04:04:05;103336.09;;;0.18;100.00
59951;BME280;45812;53.540;9.774;2024-01-11T04:06:30;103329.97;;;0.21;100.00
59951;BME280;45812;53.540;9.774;2024-01-11T04:08:56;103317.81;;;0.17;100.00
59951;BME280;45812;53.540;9.774;2024-01-11T04:11:21;103305.00;;;0.05;100.00
59951;BME280;45812;53.540;9.774;2024-01-11T04:13:47;103316.44;;;-0.01;100.00
59951;BME280;45812;53.540;9.774;2024-01-11T04:16:12;103301.59;;;0.01;100.00
59951;BME280;45812;53.540;9.774;2024-01-11T04:18:38;103293.75;;;-0.01;100.00
59951;BME280;45812;53.540;9.774;2024-01-11T04:21:03;103285.22;;;-0.09;100.00
59951;BME280;45812;53.540;9.774;2024-01-11T04:23:29;103271.44;;;-0.17;100.00
59951;BME280;45812;53.540;9.774;2024-01-11T04:25:54;103267.16;;;-0.21;100.00
59951;BME280;45812;53.540;9.774;2024-01-11T04:28:19;103271.44;;;-0.17;100.00
59951;BME280;45812;53.540;9.774;2024-01-11T04:30:45;103271.22;;;-0.08;100.00
59951;BME280;45812;53.540;9.774;2024-01-11T04:33:10;103260.66;;;-0.03;100.00
59951;BME280;45812;53.540;9.774;2024-01-11T04:35:36;103257.31;;;-0.10;100.00
59951;BME280;45812;53.540;9.774;2024-01-11T04:38:01;103257.50;;;-0.17;100.00
59951;BME280;45812;53.540;9.774;2024-01-11T04:40:27;103255.81;;;-0.21;100.00
59951;BME280;45812;53.540;9.774;2024-01-11T04:42:52;103240.22;;;-0.26;100.00
59951;BME280;45812;53.540;9.774;2024-01-11T04:45:17;103235.81;;;-0.24;100.00
59951;BME280;45812;53.540;9.774;2024-01-11T04:47:42;103234.16;;;-0.28;100.00
59951;BME280;45812;53.540;9.774;2024-01-11T04:50:08;103248.09;;;-0.27;100.00
59951;BME280;45812;53.540;9.774;2024-01-11T04:52:33;103242.78;;;-0.24;100.00
59951;BME280;45812;53.540;9.774;2024-01-11T04:54:58;103234.91;;;-0.23;100.00
59951;BME280;45812;53.540;9.774;2024-01-11T04:57:23;103223.47;;;-0.19;100.00
59951;BME280;45812;53.540;9.774;2024-01-11T04:59:49;103210.38;;;-0.19;100.00
59951;BME280;45812;53.540;9.774;2024-01-11T05:02:14;103198.16;;;-0.17;100.00
59951;BME280;45812;53.540;9.774;2024-01-11T05:04:39;103205.16;;;-0.17;100.00
59951;BME280;45812;53.540;9.774;2024-01-11T05:07:04;103220.94;;;-0.22;100.00
59951;BME280;45812;53.540;9.774;2024-01-11T05:09:30;103248.00;;;-0.23;100.00
59951;BME280;45812;53.540;9.774;2024-01-11T05:11:55;103267.91;;;-0.14;100.00
59951;BME280;45812;53.540;9.774;2024-01-11T05:14:20;103260.69;;;-0.05;100.00
59951;BME280;45812;53.540;9.774;2024-01-11T05:16:46;103257.06;;;0.03;100.00
59951;BME280;45812;53.540;9.774;2024-01-11T05:19:11;103258.63;;;0.10;100.00
59951;BME280;45812;53.540;9.774;2024-01-11T05:21:37;103262.78;;;0.18;100.00
59951;BME280;45812;53.540;9.774;2024-01-11T05:24:02;103256.47;;;0.27;100.00
59951;BME280;45812;53.540;9.774;2024-01-11T05:26:28;103257.22;;;0.32;100.00
59951;BME280;45812;53.540;9.774;2024-01-11T05:28:53;103249.25;;;0.37;100.00
59951;BME280;45812;53.540;9.774;2024-01-11T05:31:19;103254.22;;;0.47;100.00
59951;BME280;45812;53.540;9.774;2024-01-11T05:33:44;103261.13;;;0.51;100.00
59951;BME280;45812;53.540;9.774;2024-01-11T05:36:10;103265.53;;;0.49;100.00
59951;BME280;45812;53.540;9.774;2024-01-11T05:38:36;103269.00;;;0.50;100.00
59951;BME280;45812;53.540;9.774;2024-01-11T05:41:01;103274.28;;;0.48;100.00
59951;BME280;45812;53.540;9.774;2024-01-11T05:43:27;103276.13;;;0.45;100.00
59951;BME280;45812;53.540;9.774;2024-01-11T05:45:52;103280.34;;;0.50;100.00
59951;BME280;45812;53.540;9.774;2024-01-11T05:48:18;103276.84;;;0.51;100.00
59951;BME280;45812;53.540;9.774;2024-01-11T05:50:44;103270.66;;;0.54;100.00
59951;BME280;45812;53.540;9.774;2024-01-11T05:53:09;103253.03;;;0.60;100.00
59951;BME280;45812;53.540;9.774;2024-01-11T05:55:34;103254.69;;;0.65;100.00
59951;BME280;45812;53.540;9.774;2024-01-11T05:58:00;103240.53;;;0.70;100.00
59951;BME280;45812;53.540;9.774;2024-01-11T06:00:26;103233.50;;;0.72;100.00
59951;BME280;45812;53.540;9.774;2024-01-11T06:02:51;103230.84;;;0.74;100.00
59951;BME280;45812;53.540;9.774;2024-01-11T06:05:16;103234.22;;;0.79;100.00
59951;BME280;45812;53.540;9.774;2024-01-11T06:07:42;103233.31;;;0.80;100.00
59951;BME280;45812;53.540;9.774;2024-01-11T06:10:07;103237.66;;;0.81;100.00
59951;BME280;45812;53.540;9.774;2024-01-11T06:12:34;103229.72;;;0.84;100.00
59951;BME280;45812;53.540;9.774;2024-01-11T06:15:00;103223.66;;;0.82;100.00
59951;BME280;45812;53.540;9.774;2024-01-11T06:17:26;103227.25;;;0.78;100.00
59951;BME280;45812;53.540;9.774;2024-01-11T06:19:51;103230.91;;;0.71;100.00
59951;BME280;45812;53.540;9.774;2024-01-11T06:22:16;103225.84;;;0.65;100.00
59951;BME280;45812;53.540;9.774;2024-01-11T06:24:42;103229.53;;;0.57;100.00
59951;BME280;45812;53.540;9.774;2024-01-11T06:27:07;103231.38;;;0.52;100.00
59951;BME280;45812;53.540;9.774;2024-01-11T06:29:32;103222.75;;;0.49;100.00
59951;BME280;45812;53.540;9.774;2024-01-11T06:31:57;103219.09;;;0.56;100.00
59951;BME280;45812;53.540;9.774;2024-01-11T06:34:23;103212.81;;;0.62;100.00
59951;BME280;45812;53.540;9.774;2024-01-11T06:36:48;103224.34;;;0.54;100.00
59951;BME280;45812;53.540;9.774;2024-01-11T06:39:13;103230.47;;;0.53;100.00
59951;BME280;45812;53.540;9.774;2024-01-11T06:41:39;103222.56;;;0.56;100.00
59951;BME280;45812;53.540;9.774;2024-01-11T06:44:04;103220.69;;;0.62;100.00
59951;BME280;45812;53.540;9.774;2024-01-11T06:46:29;103223.41;;;0.58;100.00
59951;BME280;45812;53.540;9.774;2024-01-11T06:48:55;103219.84;;;0.61;100.00
59951;BME280;45812;53.540;9.774;2024-01-11T06:51:21;103217.94;;;0.66;100.00
59951;BME280;45812;53.540;9.774;2024-01-11T06:53:47;103227.41;;;0.72;100.00
59951;BME280;45812;53.540;9.774;2024-01-11T06:56:17;103232.59;;;0.75;100.00
59951;BME280;45812;53.540;9.774;2024-01-11T06:58:43;103234.13;;;0.82;100.00
59951;BME280;45812;53.540;9.774;2024-01-11T07:01:08;103239.22;;;0.88;100.00
59951;BME280;45812;53.540;9.774;2024-01-11T07:03:34;103238.25;;;0.90;100.00
59951;BME280;45812;53.540;9.774;2024-01-11T07:05:59;103227.72;;;0.92;100.00
59951;BME280;45812;53.540;9.774;2024-01-11T07:08:24;103232.03;;;0.96;100.00
59951;BME280;45812;53.540;9.774;2024-01-11T07:10:50;103243.19;;;1.03;100.00
59951;BME280;45812;53.540;9.774;2024-01-11T07:13:15;103240.34;;;1.12;100.00
59951;BME280;45812;53.540;9.774;2024-01-11T07:15:42;103235.78;;;1.18;100.00
59951;BME280;45812;53.540;9.774;2024-01-11T07:18:07;103242.59;;;1.24;100.00
59951;BME280;45812;53.540;9.774;2024-01-11T07:20:32;103249.47;;;1.28;100.00
59951;BME280;45812;53.540;9.774;2024-01-11T07:22:58;103253.09;;;1.24;100.00
59951;BME280;45812;53.540;9.774;2024-01-11T07:25:24;103260.09;;;1.24;100.00
59951;BME280;45812;53.540;9.774;2024-01-11T07:27:49;103270.41;;;1.30;100.00
59951;BME280;45812;53.540;9.774;2024-01-11T07:30:14;103266.88;;;1.32;100.00
59951;BME280;45812;53.540;9.774;2024-01-11T07:32:40;103258.16;;;1.32;100.00
59951;BME280;45812;53.540;9.774;2024-01-11T07:35:05;103251.13;;;1.32;100.00
59951;BME280;45812;53.540;9.774;2024-01-11T07:37:31;103253.63;;;1.37;100.00
59951;BME280;45812;53.540;9.774;2024-01-11T07:39:57;103253.53;;;1.40;100.00
59951;BME280;45812;53.540;9.774;2024-01-11T07:42:22;103255.25;;;1.41;100.00
59951;BME280;45812;53.540;9.774;2024-01-11T07:44:47;103256.25;;;1.37;100.00
59951;BME280;45812;53.540;9.774;2024-01-11T07:47:12;103271.94;;;1.38;100.00
59951;BME280;45812;53.540;9.774;2024-01-11T07:49:38;103270.91;;;1.44;100.00
59951;BME280;45812;53.540;9.774;2024-01-11T07:52:04;103262.88;;;1.48;100.00
59951;BME280;45812;53.540;9.774;2024-01-11T07:54:29;103262.78;;;1.53;100.00
59951;BME280;45812;53.540;9.774;2024-01-11T07:56:56;103267.91;;;1.58;100.00
59951;BME280;45812;53.540;9.774;2024-01-11T07:59:21;103273.97;;;1.60;100.00
59951;BME280;45812;53.540;9.774;2024-01-11T08:01:46;103280.03;;;1.62;100.00
59951;BME280;45812;53.540;9.774;2024-01-11T08:04:13;103286.84;;;1.67;100.00
59951;BME280;45812;53.540;9.774;2024-01-11T08:06:38;103294.53;;;1.75;100.00
59951;BME280;45812;53.540;9.774;2024-01-11T08:09:04;103293.56;;;1.77;100.00
59951;BME280;45812;53.540;9.774;2024-01-11T08:11:30;103287.41;;;1.78;100.00
59951;BME280;45812;53.540;9.774;2024-01-11T08:13:56;103281.34;;;1.76;100.00
59951;BME280;45812;53.540;9.774;2024-01-11T08:16:21;103279.63;;;1.75;100.00
59951;BME280;45812;53.540;9.774;2024-01-11T08:18:46;103278.72;;;1.76;100.00
59951;BME280;45812;53.540;9.774;2024-01-11T08:21:13;103280.34;;;1.80;100.00
59951;BME280;45812;53.540;9.774;2024-01-11T08:23:40;103275.00;;;1.83;100.00
59951;BME280;45812;53.540;9.774;2024-01-11T08:26:10;103265.50;;;1.79;100.00
59951;BME280;45812;53.540;9.774;2024-01-11T08:28:36;103256.94;;;1.73;100.00
59951;BME280;45812;53.540;9.774;2024-01-11T08:31:01;103246.59;;;1.67;100.00
59951;BME280;45812;53.540;9.774;2024-01-11T08:33:29;103253.81;;;1.60;100.00
59951;BME280;45812;53.540;9.774;2024-01-11T08:35:55;103257.53;;;1.53;100.00
59951;BME280;45812;53.540;9.774;2024-01-11T08:38:20;103255.81;;;1.52;100.00
59951;BME280;45812;53.540;9.774;2024-01-11T08:40:45;103253.19;;;1.52;100.00
59951;BME280;45812;53.540;9.774;2024-01-11T08:43:10;103250.47;;;1.55;100.00
59951;BME280;45812;53.540;9.774;2024-01-11T08:45:36;103251.38;;;1.54;100.00
59951;BME280;45812;53.540;9.774;2024-01-11T08:48:01;103246.13;;;1.54;100.00
59951;BME280;45812;53.540;9.774;2024-01-11T08:50:26;103245.13;;;1.58;100.00
59951;BME280;45812;53.540;9.774;2024-01-11T08:52:51;103237.25;;;1.58;100.00
59951;BME280;45812;53.540;9.774;2024-01-11T08:55:17;103240.59;;;1.63;100.00
59951;BME280;45812;53.540;9.774;2024-01-11T08:57:42;103239.78;;;1.61;100.00
59951;BME280;45812;53.540;9.774;2024-01-11T09:00:07;103235.34;;;1.63;100.00
59951;BME280;45812;53.540;9.774;2024-01-11T09:02:33;103243.97;;;1.67;100.00
59951;BME280;45812;53.540;9.774;2024-01-11T09:04:59;103240.63;;;1.62;100.00
59951;BME280;45812;53.540;9.774;2024-01-11T09:07:24;103238.91;;;1.61;100.00
59951;BME280;45812;53.540;9.774;2024-01-11T09:09:49;103241.59;;;1.59;100.00
59951;BME280;45812;53.540;9.774;2024-01-11T09:12:15;103228.56;;;1.56;100.00
59951;BME280;45812;53.540;9.774;2024-01-11T09:14:40;103226.75;;;1.58;100.00
59951;BME280;45812;53.540;9.774;2024-01-11T09:17:06;103243.25;;;1.62;100.00
59951;BME280;45812;53.540;9.774;2024-01-11T09:19:34;103245.72;;;1.68;100.00
59951;BME280;45812;53.540;9.774;2024-01-11T09:21:59;103242.22;;;1.67;100.00
59951;BME280;45812;53.540;9.774;2024-01-11T09:24:25;103229.94;;;1.69;100.00
59951;BME280;45812;53.540;9.774;2024-01-11T09:26:50;103230.75;;;1.71;100.00
59951;BME280;45812;53.540;9.774;2024-01-11T09:29:16;103228.22;;;1.67;100.00
59951;BME280;45812;53.540;9.774;2024-01-11T09:31:41;103230.84;;;1.67;100.00
59951;BME280;45812;53.540;9.774;2024-01-11T09:34:07;103237.81;;;1.69;100.00
59951;BME280;45812;53.540;9.774;2024-01-11T09:36:32;103238.72;;;1.67;100.00
59951;BME280;45812;53.540;9.774;2024-01-11T09:38:58;103241.28;;;1.70;100.00
59951;BME280;45812;53.540;9.774;2024-01-11T09:41:23;103241.09;;;1.76;100.00
59951;BME280;45812;53.540;9.774;2024-01-11T09:43:51;103239.19;;;1.81;100.00
59951;BME280;45812;53.540;9.774;2024-01-11T09:46:18;103232.06;;;1.85;99.85
59951;BME280;45812;53.540;9.774;2024-01-11T09:48:46;103236.28;;;1.90;100.00
59951;BME280;45812;53.540;9.774;2024-01-11T09:51:13;103231.84;;;1.92;100.00
59951;BME280;45812;53.540;9.774;2024-01-11T09:53:38;103237.06;;;1.94;99.52
59951;BME280;45812;53.540;9.774;2024-01-11T09:56:07;103226.50;;;1.95;100.00
59951;BME280;45812;53.540;9.774;2024-01-11T09:58:34;103222.97;;;1.96;99.22
59951;BME280;45812;53.540;9.774;2024-01-11T10:01:02;103217.22;;;1.83;99.43
59951;BME280;45812;53.540;9.774;2024-01-11T10:03:27;103219.91;;;1.82;100.00
59951;BME280;45812;53.540;9.774;2024-01-11T10:05:57;103213.78;;;1.81;100.00
59951;BME280;45812;53.540;9.774;2024-01-11T10:08:23;103218.06;;;1.84;100.00
59951;BME280;45812;53.540;9.774;2024-01-11T10:10:48;103210.94;;;1.89;100.00
59951;BME280;45812;53.540;9.774;2024-01-11T10:13:17;103209.03;;;1.94;100.00
59951;BME280;45812;53.540;9.774;2024-01-11T10:15:43;103207.84;;;2.03;100.00
59951;BME280;45812;53.540;9.774;2024-01-11T10:18:09;103211.22;;;2.08;100.00
59951;BME280;45812;53.540;9.774;2024-01-11T10:20:34;103219.72;;;2.16;100.00
59951;BME280;45812;53.540;9.774;2024-01-11T10:23:00;103202.88;;;2.22;99.13
59951;BME280;45812;53.540;9.774;2024-01-11T10:25:27;103205.31;;;2.28;99.10
59951;BME280;45812;53.540;9.774;2024-01-11T10:27:52;103198.25;;;2.30;98.64
59951;BME280;45812;53.540;9.774;2024-01-11T10:30:17;103189.50;;;2.29;97.95
59951;BME280;45812;53.540;9.774;2024-01-11T10:32:45;103186.19;;;2.24;97.78
59951;BME280;45812;53.540;9.774;2024-01-11T10:35:10;103187.09;;;2.23;99.18
59951;BME280;45812;53.540;9.774;2024-01-11T10:37:37;103191.44;;;2.24;98.92
59951;BME280;45812;53.540;9.774;2024-01-11T10:40:06;103199.31;;;2.24;99.30
59951;BME280;45812;53.540;9.774;2024-01-11T10:42:39;103196.59;;;2.27;98.98
59951;BME280;45812;53.540;9.774;2024-01-11T10:45:11;103198.25;;;2.30;98.71
59951;BME280;45812;53.540;9.774;2024-01-11T10:47:45;103201.50;;;2.36;99.76
59951;BME280;45812;53.540;9.774;2024-01-11T10:50:12;103204.72;;;2.46;99.42
59951;BME280;45812;53.540;9.774;2024-01-11T10:52:43;103208.91;;;2.52;98.09
59951;BME280;45812;53.540;9.774;2024-01-11T10:55:11;103212.31;;;2.54;98.50
59951;BME280;45812;53.540;9.774;2024-01-11T10:57:37;103215.66;;;2.59;98.43
59951;BME280;45812;53.540;9.774;2024-01-11T11:00:05;103225.06;;;2.66;98.81
59951;BME280;45812;53.540;9.774;2024-01-11T11:02:32;103239.72;;;2.73;98.72
59951;BME280;45812;53.540;9.774;2024-01-11T11:05:00;103238.81;;;2.74;98.71
59951;BME280;45812;53.540;9.774;2024-01-11T11:07:29;103246.59;;;2.77;98.32
59951;BME280;45812;53.540;9.774;2024-01-11T11:09:56;103250.84;;;2.81;98.19
59951;BME280;45812;53.540;9.774;2024-01-11T11:12:21;103235.72;;;2.88;97.31
59951;BME280;45812;53.540;9.774;2024-01-11T11:14:47;103230.16;;;2.95;97.62
59951;BME280;45812;53.540;9.774;2024-01-11T11:17:15;103230.88;;;3.00;96.74
59951;BME280;45812;53.540;9.774;2024-01-11T11:19:40;103225.41;;;3.07;96.56
59951;BME280;45812;53.540;9.774;2024-01-11T11:22:06;103231.34;;;3.12;96.09
59951;BME280;45812;53.540;9.774;2024-01-11T11:24:34;103227.78;;;3.13;95.32
59951;BME280;45812;53.540;9.774;2024-01-11T11:26:59;103222.53;;;3.13;94.48
59951;BME280;45812;53.540;9.774;2024-01-11T11:29:24;103221.53;;;3.17;94.96
59951;BME280;45812;53.540;9.774;2024-01-11T11:31:50;103207.53;;;3.16;94.17
59951;BME280;45812;53.540;9.774;2024-01-11T11:34:20;103195.41;;;3.11;93.92
59951;BME280;45812;53.540;9.774;2024-01-11T11:36:50;103198.97;;;3.10;94.99
59951;BME280;45812;53.540;9.774;2024-01-11T11:39:20;103201.72;;;3.07;94.98
59951;BME280;45812;53.540;9.774;2024-01-11T11:41:45;103200.06;;;3.04;95.28
59951;BME280;45812;53.540;9.774;2024-01-11T11:44:12;103200.97;;;3.03;94.97
59951;BME280;45812;53.540;9.774;2024-01-11T11:46:40;103190.56;;;3.00;96.23
59951;BME280;45812;53.540;9.774;2024-01-11T11:49:06;103188.78;;;3.00;96.60
59951;BME280;45812;53.540;9.774;2024-01-11T11:51:32;103184.28;;;3.04;96.67
59951;BME280;45812;53.540;9.774;2024-01-11T11:53:58;103190.22;;;3.09;96.46
59951;BME280;45812;53.540;9.774;2024-01-11T11:56:23;103191.75;;;3.15;96.40
59951;BME280;45812;53.540;9.774;2024-01-11T11:58:49;103184.69;;;3.17;95.70
59951;BME280;45812;53.540;9.774;2024-01-11T12:01:17;103191.66;;;3.18;96.49
59951;BME280;45812;53.540;9.774;2024-01-11T12:03:43;103191.56;;;3.21;96.88
59951;BME280;45812;53.540;9.774;2024-01-11T12:06:15;103201.03;;;3.25;96.17
59951;BME280;45812;53.540;9.774;2024-01-11T12:08:42;103191.31;;;3.27;97.15
59951;BME280;45812;53.540;9.774;2024-01-11T12:11:08;103179.94;;;3.26;96.88
59951;BME280;45812;53.540;9.774;2024-01-11T12:13:34;103184.22;;;3.29;96.53
59951;BME280;45812;53.540;9.774;2024-01-11T12:16:00;103185.00;;;3.31;96.48
59951;BME280;45812;53.540;9.774;2024-01-11T12:18:25;103171.84;;;3.31;96.38
59951;BME280;45812;53.540;9.774;2024-01-11T12:20:50;103165.78;;;3.29;96.07
59951;BME280;45812;53.540;9.774;2024-01-11T12:23:18;103159.84;;;3.24;96.26
59951;BME280;45812;53.540;9.774;2024-01-11T12:25:43;103155.50;;;3.23;97.29
59951;BME280;45812;53.540;9.774;2024-01-11T12:28:09;103160.59;;;3.27;97.41
59951;BME280;45812;53.540;9.774;2024-01-11T12:30:34;103165.00;;;3.27;97.72
59951;BME280;45812;53.540;9.774;2024-01-11T12:33:00;103165.97;;;3.24;97.44
59951;BME280;45812;53.540;9.774;2024-01-11T12:35:28;103147.66;;;3.21;98.30
59951;BME280;45812;53.540;9.774;2024-01-11T12:38:03;103145.03;;;3.21;98.42
59951;BME280;45812;53.540;9.774;2024-01-11T12:40:32;103148.28;;;3.28;99.06
59951;BME280;45812;53.540;9.774;2024-01-11T12:42:59;103140.25;;;3.31;98.26
59951;BME280;45812;53.540;9.774;2024-01-11T12:45:25;103138.34;;;3.36;98.78